Hauptseite
METAR-TAF:

METAR-TAF

Flughäfen :

Flughafen Friedrichshafen

Friedrichshafen, Deutschland

Breite: 47-40N, Länge: 009-31E, Höhe: 416 m

Beobachtung

Neuester Wetterbericht von vor 36 Minuten, um 07:50 UTC
Wind 8 kt aus Nord/Nordost, variierte zwischen Nord und Ost/Nordost
Temperatur 19°C
Luftfeuchtigkeit 64%
Luftdruck 1020 hPa
Sichtweite 10 km oder mehr
keine Wolken unter 1500 m und keine Kumulonimbus oder Gewitterwolken

METAR: EDNY 110750Z 02008KT 360V060 CAVOK 19/12 Q1020 RMK/ ATIS H

Zeit: 10:26 (08:26 UTC)

Prognose

Neuester Wetterbericht von vor 3 Stunden und 26 Minuten, um 05:00 UTC
Gültige Prognose vom 11 um 06 UTC bis 12 um 06 UTC
Wind 7 kt aus Nordost
Sichtweite 10 km oder mehr
keine Wolken unter 1500 m und keine Kumulonimbus oder Gewitterwolken

TAF: EDNY 110500Z 1106/1206 05007KT CAVOK

Wetterbeobachtungen und Prognosen von mehr als 4000 Flughäfen (METAR und TAF Bericht).

Die verfügbaren Stationen werden durch gelbe und rote Markierungen auf der Karte dargestellt.

Führen Sie die Maus auf sie, um den Namen der Station zu sehen.

Darauf klicken, um die Beobachtung von Wetterbeobachtungen und Prognosen zu sehen.

Um die Karte zu ändern : klicken Sie auf den grünen Tasten mit einem schwarzen Kreuz Zum Vergrößern, auf den grünen Button mit einem Gedankenstrich zu verkleinern, oder auf die grünen Pfeile für benachbarte Karten.


METAR-TAF: